Queen Of Cowichan — CZ4990 — position and weather

sailwx.info

Track history (hours):
 
Tides and Currents Weather Stations Pressure Air Temp Water Temp Dewpoint Dewpoint Depression Visibility Wind Speed Wind Dir Waves Ship Positions

Queen Of Cowichan

Last reported at 2015-Aug-01 00:33 UTC. Time now 2015-Aug-01 01:30 UTC.
Position N 49°16' W 123°36'.

Length 139 m; draft 5.5 m.

Type: Passenger vessel. MMSI: 316001251.

Date/timePositionNaut miles runAvg speedWind from/ knotsBaromVisibWave heightAir tempDewpointWater temp
2015-Aug-01 00:33N 49°16' W 123°36'1414.4
2015-Jul-31 23:33N 49°12' W 123°57'1111.4
2015-Jul-31 22:34N 49°16' W 123°42'1817.6
2015-Jul-31 21:33N 49°23' W 123°16'6 6.4
2015-Jul-31 20:34N 49°19' W 123°24'2019.8
2015-Jul-31 19:34N 49°13' W 123°53'1 0.8
2015-Jul-31 18:33N 49°13' W 123°54'2020.0
2015-Jul-31 17:34N 49°19' W 123°25'7 6.8
2015-Jul-31 16:33N 49°23' W 123°16'1515.5
2015-Jul-31 15:33N 49°15' W 123°37'1413.5
2015-Jul-31 14:33N 49°12' W 123°57'0 0.0
2015-Jul-31 13:30N 49°12' W 123°57'0 0.0
2015-Jul-31 12:24N 49°12' W 123°57'0 0.0
2015-Jul-31 09:21N 49°12' W 123°57'0 0.0
2015-Jul-31 07:12N 49°12' W 123°57'0 0.0
2015-Jul-31 06:33N 49°12' W 123°57'0 0.0
2015-Jul-31 04:24N 49°12' W 123°57'3 3.6
2015-Jul-31 03:34N 49°13' W 123°54'2019.9
2015-Jul-31 02:34N 49°19' W 123°24'6 6.3
2015-Jul-31 01:33N 49°23' W 123°16'1716.9
2015-Jul-31 00:33N 49°15' W 123°40'1211.8
2015-Jul-30 23:32N 49°12' W 123°57'1110.9
2015-Jul-30 22:33N 49°16' W 123°43'1818.5
2015-Jul-30 21:34N 49°23' W 123°16'4 4.0
2015-Jul-30 20:33N 49°20' W 123°21'2019.7
2015-Jul-30 19:33N 49°14' W 123°50'6 5.5
2015-Jul-30 18:33N 49°12' W 123°57'1919.3
2015-Jul-30 17:33N 49°18' W 123°29'10 9.5
2015-Jul-30 16:33N 49°23' W 123°16'1414.2
2015-Jul-30 15:33N 49°16' W 123°36'1514.8
2015-Jul-30 14:33N 49°12' W 123°57'0 0.0
2015-Jul-30 13:26N 49°12' W 123°57'0 0.0
2015-Jul-30 12:29N 49°12' W 123°57'0 0.0
2015-Jul-30 11:32N 49°12' W 123°57'0 0.0
2015-Jul-30 10:32N 49°12' W 123°57'0 0.0
2015-Jul-30 09:29N 49°12' W 123°57'0 0.0
2015-Jul-30 08:29N 49°12' W 123°57'0 0.0
2015-Jul-30 07:20N 49°12' W 123°57'0 0.0
2015-Jul-30 04:26N 49°12' W 123°57'0 0.0
2015-Jul-30 02:17N 49°12' W 123°57'0 0.0
2015-Jul-30 01:29N 49°12' W 123°57'0 0.0
2015-Jul-30 00:23N 49°12' W 123°57'0 0.0
2015-Jul-29 23:14N 49°12' W 123°57'1116.5
2015-Jul-29 22:33N 49°17' W 123°42'1817.9
2015-Jul-29 21:33N 49°23' W 123°16'4 4.0
2015-Jul-29 20:33N 49°20' W 123°21'2019.9
2015-Jul-29 19:33N 49°13' W 123°49'5 4.0
2015-Jul-29 18:12N 49°12' W 123°57'0 0.0
2015-Jul-29 17:33N 49°12' W 123°57'0 0.0
2015-Jul-29 15:27N 49°12' W 123°57'0 0.0
2015-Jul-29 14:24N 49°12' W 123°57'0 0.0
2015-Jul-29 13:33N 49°12' W 123°57'0 0.0
2015-Jul-29 12:33N 49°12' W 123°57'0 0.0
2015-Jul-29 11:27N 49°12' W 123°57'0 0.0
2015-Jul-29 10:24N 49°12' W 123°57'0 0.0
2015-Jul-29 09:33N 49°12' W 123°57'0 0.0
2015-Jul-29 08:21N 49°12' W 123°57'0 0.0
2015-Jul-29 07:15N 49°12' W 123°57'0 0.0
2015-Jul-29 06:33N 49°12' W 123°57'0 0.0
2015-Jul-29 04:33N 49°12' W 123°57'0 0.0
2015-Jul-29 03:21N 49°12' W 123°57'0 0.0
2015-Jul-29 02:24N 49°12' W 123°57'0 0.0
2015-Jul-28 23:21N 49°12' W 123°57'1113.5
2015-Jul-28 22:33N 49°16' W 123°42'1818.3
2015-Jul-28 21:33N 49°23' W 123°16'4 4.1
2015-Jul-28 20:34N 49°20' W 123°21'2019.8
2015-Jul-28 19:34N 49°14' W 123°50'6 5.5
2015-Jul-28 18:34N 49°12' W 123°57'0 0.0
2015-Jul-28 17:30N 49°12' W 123°57'0 0.0
2015-Jul-28 16:30N 49°12' W 123°57'0 0.0
2015-Jul-28 14:24N 49°12' W 123°57'0 0.0
2015-Jul-28 13:18N 49°12' W 123°57'0 0.0
2015-Jul-28 12:30N 49°12' W 123°57'0 0.0
2015-Jul-28 11:33N 49°12' W 123°57'0 0.0
2015-Jul-28 10:30N 49°12' W 123°57'0 0.0
2015-Jul-28 09:33N 49°12' W 123°57'0 0.0
2015-Jul-28 08:33N 49°12' W 123°57'0 0.0
2015-Jul-28 07:30N 49°12' W 123°57'0 0.0
2015-Jul-28 06:30N 49°12' W 123°57'0 0.0
2015-Jul-28 05:24N 49°12' W 123°57'4 2.1
2015-Jul-28 03:34N 49°14' W 123°52'2019.9
2015-Jul-28 02:33N 49°20' W 123°23'6 5.6
2015-Jul-28 01:33N 49°23' W 123°17'1918.8
2015-Jul-28 00:33N 49°15' W 123°43'1010.1
2015-Jul-27 23:33N 49°12' W 123°57'1212.5
2015-Jul-27 22:34N 49°17' W 123°40'1616.5
2015-Jul-27 21:33N 49°23' W 123°16'4 3.7
2015-Jul-27 20:33N 49°20' W 123°20'2019.6
2015-Jul-27 19:33N 49°14' W 123°49'6 5.8
2015-Jul-27 18:33N 49°12' W 123°57'1919.2
2015-Jul-27 17:34N 49°19' W 123°30'10 9.6
2015-Jul-27 16:33N 49°23' W 123°16'1414.1
2015-Jul-27 15:33N 49°16' W 123°35'1515.0
2015-Jul-27 14:33N 49°12' W 123°57'0 0.0
2015-Jul-27 13:20N 49°12' W 123°57'0 0.0
2015-Jul-27 12:26N 49°12' W 123°57'0 0.0
2015-Jul-27 11:32N 49°12' W 123°57'0 0.0
2015-Jul-27 10:26N 49°12' W 123°57'0 0.0
2015-Jul-27 08:29N 49°12' W 123°57'8 8.7
2015-Jul-27 07:33N 49°15' W 123°46'1919.5
2015-Jul-27 06:34N 49°22' W 123°18'6 6.0
2015-Jul-27 05:33N 49°18' W 123°25'2019.8
2015-Jul-27 04:33N 49°13' W 123°54'1 0.7
2015-Jul-27 03:34N 49°14' W 123°53'2020.0
2015-Jul-27 02:33N 49°19' W 123°24'6 6.0
2015-Jul-27 01:34N 49°23' W 123°16'1515.2
2015-Jul-27 00:33N 49°16' W 123°38'1413.2
2015-Jul-26 23:31N 49°12' W 123°57'1212.6
2015-Jul-26 22:33N 49°17' W 123°40'1716.8
2015-Jul-26 21:33N 49°23' W 123°16'7 6.6
2015-Jul-26 20:34N 49°19' W 123°25'1919.4
2015-Jul-26 19:34N 49°14' W 123°53'3 2.2
2015-Jul-26 18:06N 49°12' W 123°57'0 0.0
2015-Jul-26 17:27N 49°12' W 123°57'0 0.0
2015-Jul-26 15:30N 49°12' W 123°57'0 0.0
2015-Jul-26 14:30N 49°12' W 123°57'0 0.0
2015-Jul-26 13:15N 49°12' W 123°57'0 0.0
2015-Jul-26 12:24N 49°12' W 123°57'0 0.0
2015-Jul-26 11:30N 49°12' W 123°57'0 0.0
2015-Jul-26 10:30N 49°12' W 123°57'0 0.0
2015-Jul-26 09:33N 49°12' W 123°57'0 0.0
2015-Jul-26 08:27N 49°12' W 123°57'0 0.0
2015-Jul-26 07:33N 49°12' W 123°57'0 0.0
2015-Jul-26 06:30N 49°12' W 123°57'0 0.0
2015-Jul-26 04:24N 49°12' W 123°57'0 0.0
2015-Jul-26 02:24N 49°12' W 123°57'0 0.0
2015-Jul-26 01:33N 49°12' W 123°57'0 0.0
2015-Jul-26 00:24N 49°12' W 123°57'0 0.0
2015-Jul-25 23:18N 49°12' W 123°57'1012.9
2015-Jul-25 22:33N 49°16' W 123°44'1919.2
2015-Jul-25 21:34N 49°23' W 123°17'3 3.1
2015-Jul-25 20:33N 49°21' W 123°20'2020.3
2015-Jul-25 19:33N 49°14' W 123°49'6 5.5
2015-Jul-25 18:33N 49°12' W 123°57'1919.5
2015-Jul-25 17:33N 49°18' W 123°29'9 9.3
2015-Jul-25 16:33N 49°23' W 123°16'1615.5
2015-Jul-25 15:33N 49°15' W 123°37'1413.4
2015-Jul-25 14:33N 49°12' W 123°57'0 0.0
2015-Jul-25 13:11N 49°12' W 123°57'0 0.0
2015-Jul-25 12:29N 49°12' W 123°57'0 0.0
2015-Jul-25 11:32N 49°12' W 123°57'0 0.0
2015-Jul-25 10:23N 49°12' W 123°57'0 0.0
2015-Jul-25 09:14N 49°12' W 123°57'0 0.0
2015-Jul-25 08:29N 49°12' W 123°57'0 0.0
2015-Jul-25 07:32N 49°12' W 123°57'3 0.8
2015-Jul-25 03:34N 49°14' W 123°53'2019.9
2015-Jul-25 02:33N 49°19' W 123°24'6 5.9
2015-Jul-25 01:33N 49°23' W 123°16'1717.0
2015-Jul-25 00:34N 49°16' W 123°40'1211.9
2015-Jul-24 23:33N 49°12' W 123°57'1413.9
2015-Jul-24 22:33N 49°19' W 123°39'1515.5
2015-Jul-24 21:33N 49°23' W 123°16'5 4.9
2015-Jul-24 20:34N 49°25' W 123°23'2120.6
2015-Jul-24 19:33N 49°15' W 123°50'6 5.6
2015-Jul-24 18:33N 49°12' W 123°57'1919.0
2015-Jul-24 17:34N 49°19' W 123°30'10 9.9
2015-Jul-24 16:34N 49°23' W 123°16'1413.9
2015-Jul-24 15:33N 49°17' W 123°36'1515.1
2015-Jul-24 14:33N 49°12' W 123°57'0 0.0
2015-Jul-24 13:32N 49°12' W 123°57'0 0.0
2015-Jul-24 12:32N 49°12' W 123°57'0 0.0
2015-Jul-24 11:32N 49°12' W 123°57'0 0.0
2015-Jul-24 10:32N 49°12' W 123°57'0 0.0
2015-Jul-24 09:26N 49°12' W 123°57'0 0.0
2015-Jul-24 08:29N 49°12' W 123°57'0 0.0
2015-Jul-24 07:11N 49°12' W 123°57'0 0.0
2015-Jul-24 06:29N 49°12' W 123°57'0 0.0
2015-Jul-24 04:08N 49°12' W 123°57'4 7.5
2015-Jul-24 03:33N 49°14' W 123°52'2020.0
2015-Jul-24 02:33N 49°20' W 123°22'5 5.0
2015-Jul-24 01:33N 49°23' W 123°16'1717.5
2015-Jul-24 00:33N 49°15' W 123°41'1111.1
2015-Jul-23 23:31N 49°12' W 123°57'1212.4
2015-Jul-23 22:34N 49°17' W 123°41'1717.0
2015-Jul-23 21:33N 49°23' W 123°16'4 3.9
2015-Jul-23 20:33N 49°20' W 123°21'2019.7
2015-Jul-23 19:33N 49°14' W 123°49'6 5.7
2015-Jul-23 18:33N 49°12' W 123°57'1818.1
2015-Jul-23 17:34N 49°18' W 123°31'1110.7
2015-Jul-23 16:33N 49°23' W 123°16'1313.4
2015-Jul-23 15:33N 49°16' W 123°35'1615.6
2015-Jul-23 14:33N 49°12' W 123°57'0 0.0
2015-Jul-23 13:32N 49°12' W 123°57'0 0.0
2015-Jul-23 12:33N 49°12' W 123°57'0 0.0
2015-Jul-23 11:33N 49°12' W 123°57'0 0.0
2015-Jul-23 10:33N 49°12' W 123°57'0 0.0
2015-Jul-23 09:30N 49°12' W 123°57'0 0.0
2015-Jul-23 03:15N 49°12' W 123°57'0 0.0
2015-Jul-23 02:21N 49°12' W 123°57'0 0.0
2015-Jul-22 23:33N 49°12' W 123°57'1212.4
2015-Jul-22 22:33N 49°17' W 123°40'1716.7
2015-Jul-22 21:33N 49°23' W 123°16'4 4.3
2015-Jul-22 20:33N 49°20' W 123°21'2020.0
2015-Jul-22 19:33N 49°14' W 123°50'5 5.0
2015-Jul-22 18:33N 49°12' W 123°57'0 0.0
2015-Jul-22 17:28N 49°12' W 123°57'0 0.0
2015-Jul-22 15:31N 49°12' W 123°57'0 0.0
2015-Jul-22 13:31N 49°12' W 123°57'0 0.0
2015-Jul-22 12:28N 49°12' W 123°57'0 0.0
2015-Jul-22 11:31N 49°12' W 123°57'0 0.0
2015-Jul-22 10:28N 49°12' W 123°57'0 0.0
2015-Jul-22 09:13N 49°12' W 123°57'0 0.0
2015-Jul-22 08:31N 49°12' W 123°57'0 0.0
2015-Jul-22 07:22N 49°12' W 123°57'0 0.0
2015-Jul-22 06:31N 49°12' W 123°57'0 0.0
2015-Jul-22 02:31N 49°12' W 123°57'  
Track history (hours):
 
Tides and Currents Weather Stations Pressure Air Temp Water Temp Dewpoint Dewpoint Depression Visibility Wind Speed Wind Dir Waves Ship Positions

Queen Of Cowichan

Last reported at 2015-Aug-01 00:33 UTC. Time now 2015-Aug-01 01:30 UTC.
Position N 49°16' W 123°36'.

Length 139 m; draft 5.5 m.

Type: Passenger vessel. MMSI: 316001251.

Date/timePositionNaut miles runAvg speedWind from/ knotsBaromVisibWave heightAir tempDewpointWater temp
2015-Aug-01 00:33N 49°16' W 123°36'1414.4
2015-Jul-31 23:33N 49°12' W 123°57'1111.4
2015-Jul-31 22:34N 49°16' W 123°42'1817.6
2015-Jul-31 21:33N 49°23' W 123°16'6 6.4
2015-Jul-31 20:34N 49°19' W 123°24'2019.8
2015-Jul-31 19:34N 49°13' W 123°53'1 0.8
2015-Jul-31 18:33N 49°13' W 123°54'2020.0
2015-Jul-31 17:34N 49°19' W 123°25'7 6.8
2015-Jul-31 16:33N 49°23' W 123°16'1515.5
2015-Jul-31 15:33N 49°15' W 123°37'1413.5
2015-Jul-31 14:33N 49°12' W 123°57'0 0.0
2015-Jul-31 13:30N 49°12' W 123°57'0 0.0
2015-Jul-31 12:24N 49°12' W 123°57'0 0.0
2015-Jul-31 09:21N 49°12' W 123°57'0 0.0
2015-Jul-31 07:12N 49°12' W 123°57'0 0.0
2015-Jul-31 06:33N 49°12' W 123°57'0 0.0
2015-Jul-31 04:24N 49°12' W 123°57'3 3.6
2015-Jul-31 03:34N 49°13' W 123°54'2019.9
2015-Jul-31 02:34N 49°19' W 123°24'6 6.3
2015-Jul-31 01:33N 49°23' W 123°16'1716.9
2015-Jul-31 00:33N 49°15' W 123°40'1211.8
2015-Jul-30 23:32N 49°12' W 123°57'1110.9
2015-Jul-30 22:33N 49°16' W 123°43'1818.5
2015-Jul-30 21:34N 49°23' W 123°16'4 4.0
2015-Jul-30 20:33N 49°20' W 123°21'2019.7
2015-Jul-30 19:33N 49°14' W 123°50'6 5.5
2015-Jul-30 18:33N 49°12' W 123°57'1919.3
2015-Jul-30 17:33N 49°18' W 123°29'10 9.5
2015-Jul-30 16:33N 49°23' W 123°16'1414.2
2015-Jul-30 15:33N 49°16' W 123°36'1514.8
2015-Jul-30 14:33N 49°12' W 123°57'0 0.0
2015-Jul-30 13:26N 49°12' W 123°57'0 0.0
2015-Jul-30 12:29N 49°12' W 123°57'0 0.0
2015-Jul-30 11:32N 49°12' W 123°57'0 0.0
2015-Jul-30 10:32N 49°12' W 123°57'0 0.0
2015-Jul-30 09:29N 49°12' W 123°57'0 0.0
2015-Jul-30 08:29N 49°12' W 123°57'0 0.0
2015-Jul-30 07:20N 49°12' W 123°57'0 0.0
2015-Jul-30 04:26N 49°12' W 123°57'0 0.0
2015-Jul-30 02:17N 49°12' W 123°57'0 0.0
2015-Jul-30 01:29N 49°12' W 123°57'0 0.0
2015-Jul-30 00:23N 49°12' W 123°57'0 0.0
2015-Jul-29 23:14N 49°12' W 123°57'1116.5
2015-Jul-29 22:33N 49°17' W 123°42'1817.9
2015-Jul-29 21:33N 49°23' W 123°16'4 4.0
2015-Jul-29 20:33N 49°20' W 123°21'2019.9
2015-Jul-29 19:33N 49°13' W 123°49'5 4.0
2015-Jul-29 18:12N 49°12' W 123°57'0 0.0
2015-Jul-29 17:33N 49°12' W 123°57'0 0.0
2015-Jul-29 15:27N 49°12' W 123°57'0 0.0
2015-Jul-29 14:24N 49°12' W 123°57'0 0.0
2015-Jul-29 13:33N 49°12' W 123°57'0 0.0
2015-Jul-29 12:33N 49°12' W 123°57'0 0.0
2015-Jul-29 11:27N 49°12' W 123°57'0 0.0
2015-Jul-29 10:24N 49°12' W 123°57'0 0.0
2015-Jul-29 09:33N 49°12' W 123°57'0 0.0
2015-Jul-29 08:21N 49°12' W 123°57'0 0.0
2015-Jul-29 07:15N 49°12' W 123°57'0 0.0
2015-Jul-29 06:33N 49°12' W 123°57'0 0.0
2015-Jul-29 04:33N 49°12' W 123°57'0 0.0
2015-Jul-29 03:21N 49°12' W 123°57'0 0.0
2015-Jul-29 02:24N 49°12' W 123°57'0 0.0
2015-Jul-28 23:21N 49°12' W 123°57'1113.5
2015-Jul-28 22:33N 49°16' W 123°42'1818.3
2015-Jul-28 21:33N 49°23' W 123°16'4 4.1
2015-Jul-28 20:34N 49°20' W 123°21'2019.8
2015-Jul-28 19:34N 49°14' W 123°50'6 5.5
2015-Jul-28 18:34N 49°12' W 123°57'0 0.0
2015-Jul-28 17:30N 49°12' W 123°57'0 0.0
2015-Jul-28 16:30N 49°12' W 123°57'0 0.0
2015-Jul-28 14:24N 49°12' W 123°57'0 0.0
2015-Jul-28 13:18N 49°12' W 123°57'0 0.0
2015-Jul-28 12:30N 49°12' W 123°57'0 0.0
2015-Jul-28 11:33N 49°12' W 123°57'0 0.0
2015-Jul-28 10:30N 49°12' W 123°57'0 0.0
2015-Jul-28 09:33N 49°12' W 123°57'0 0.0
2015-Jul-28 08:33N 49°12' W 123°57'0 0.0
2015-Jul-28 07:30N 49°12' W 123°57'0 0.0
2015-Jul-28 06:30N 49°12' W 123°57'0 0.0
2015-Jul-28 05:24N 49°12' W 123°57'4 2.1
2015-Jul-28 03:34N 49°14' W 123°52'2019.9
2015-Jul-28 02:33N 49°20' W 123°23'6 5.6
2015-Jul-28 01:33N 49°23' W 123°17'1918.8
2015-Jul-28 00:33N 49°15' W 123°43'1010.1
2015-Jul-27 23:33N 49°12' W 123°57'1212.5
2015-Jul-27 22:34N 49°17' W 123°40'1616.5
2015-Jul-27 21:33N 49°23' W 123°16'4 3.7
2015-Jul-27 20:33N 49°20' W 123°20'2019.6
2015-Jul-27 19:33N 49°14' W 123°49'6 5.8
2015-Jul-27 18:33N 49°12' W 123°57'1919.2
2015-Jul-27 17:34N 49°19' W 123°30'10 9.6
2015-Jul-27 16:33N 49°23' W 123°16'1414.1
2015-Jul-27 15:33N 49°16' W 123°35'1515.0
2015-Jul-27 14:33N 49°12' W 123°57'0 0.0
2015-Jul-27 13:20N 49°12' W 123°57'0 0.0
2015-Jul-27 12:26N 49°12' W 123°57'0 0.0
2015-Jul-27 11:32N 49°12' W 123°57'0 0.0
2015-Jul-27 10:26N 49°12' W 123°57'0 0.0
2015-Jul-27 08:29N 49°12' W 123°57'8 8.7
2015-Jul-27 07:33N 49°15' W 123°46'1919.5
2015-Jul-27 06:34N 49°22' W 123°18'6 6.0
2015-Jul-27 05:33N 49°18' W 123°25'2019.8
2015-Jul-27 04:33N 49°13' W 123°54'1 0.7
2015-Jul-27 03:34N 49°14' W 123°53'2020.0
2015-Jul-27 02:33N 49°19' W 123°24'6 6.0
2015-Jul-27 01:34N 49°23' W 123°16'1515.2
2015-Jul-27 00:33N 49°16' W 123°38'1413.2
2015-Jul-26 23:31N 49°12' W 123°57'1212.6
2015-Jul-26 22:33N 49°17' W 123°40'1716.8
2015-Jul-26 21:33N 49°23' W 123°16'7 6.6
2015-Jul-26 20:34N 49°19' W 123°25'1919.4
2015-Jul-26 19:34N 49°14' W 123°53'3 2.2
2015-Jul-26 18:06N 49°12' W 123°57'0 0.0
2015-Jul-26 17:27N 49°12' W 123°57'0 0.0
2015-Jul-26 15:30N 49°12' W 123°57'0 0.0
2015-Jul-26 14:30N 49°12' W 123°57'0 0.0
2015-Jul-26 13:15N 49°12' W 123°57'0 0.0
2015-Jul-26 12:24N 49°12' W 123°57'0 0.0
2015-Jul-26 11:30N 49°12' W 123°57'0 0.0
2015-Jul-26 10:30N 49°12' W 123°57'0 0.0
2015-Jul-26 09:33N 49°12' W 123°57'0 0.0
2015-Jul-26 08:27N 49°12' W 123°57'0 0.0
2015-Jul-26 07:33N 49°12' W 123°57'0 0.0
2015-Jul-26 06:30N 49°12' W 123°57'0 0.0
2015-Jul-26 04:24N 49°12' W 123°57'0 0.0
2015-Jul-26 02:24N 49°12' W 123°57'0 0.0
2015-Jul-26 01:33N 49°12' W 123°57'0 0.0
2015-Jul-26 00:24N 49°12' W 123°57'0 0.0
2015-Jul-25 23:18N 49°12' W 123°57'1012.9
2015-Jul-25 22:33N 49°16' W 123°44'1919.2
2015-Jul-25 21:34N 49°23' W 123°17'3 3.1
2015-Jul-25 20:33N 49°21' W 123°20'2020.3
2015-Jul-25 19:33N 49°14' W 123°49'6 5.5
2015-Jul-25 18:33N 49°12' W 123°57'1919.5
2015-Jul-25 17:33N 49°18' W 123°29'9 9.3
2015-Jul-25 16:33N 49°23' W 123°16'1615.5
2015-Jul-25 15:33N 49°15' W 123°37'1413.4
2015-Jul-25 14:33N 49°12' W 123°57'0 0.0
2015-Jul-25 13:11N 49°12' W 123°57'0 0.0
2015-Jul-25 12:29N 49°12' W 123°57'0 0.0
2015-Jul-25 11:32N 49°12' W 123°57'0 0.0
2015-Jul-25 10:23N 49°12' W 123°57'0 0.0
2015-Jul-25 09:14N 49°12' W 123°57'0 0.0
2015-Jul-25 08:29N 49°12' W 123°57'0 0.0
2015-Jul-25 07:32N 49°12' W 123°57'3 0.8
2015-Jul-25 03:34N 49°14' W 123°53'2019.9
2015-Jul-25 02:33N 49°19' W 123°24'6 5.9
2015-Jul-25 01:33N 49°23' W 123°16'1717.0
2015-Jul-25 00:34N 49°16' W 123°40'1211.9
2015-Jul-24 23:33N 49°12' W 123°57'1413.9
2015-Jul-24 22:33N 49°19' W 123°39'1515.5
2015-Jul-24 21:33N 49°23' W 123°16'5 4.9
2015-Jul-24 20:34N 49°25' W 123°23'2120.6
2015-Jul-24 19:33N 49°15' W 123°50'6 5.6
2015-Jul-24 18:33N 49°12' W 123°57'1919.0
2015-Jul-24 17:34N 49°19' W 123°30'10 9.9
2015-Jul-24 16:34N 49°23' W 123°16'1413.9
2015-Jul-24 15:33N 49°17' W 123°36'1515.1
2015-Jul-24 14:33N 49°12' W 123°57'0 0.0
2015-Jul-24 13:32N 49°12' W 123°57'0 0.0
2015-Jul-24 12:32N 49°12' W 123°57'0 0.0
2015-Jul-24 11:32N 49°12' W 123°57'0 0.0
2015-Jul-24 10:32N 49°12' W 123°57'0 0.0
2015-Jul-24 09:26N 49°12' W 123°57'0 0.0
2015-Jul-24 08:29N 49°12' W 123°57'0 0.0
2015-Jul-24 07:11N 49°12' W 123°57'0 0.0
2015-Jul-24 06:29N 49°12' W 123°57'0 0.0
2015-Jul-24 04:08N 49°12' W 123°57'4 7.5
2015-Jul-24 03:33N 49°14' W 123°52'2020.0
2015-Jul-24 02:33N 49°20' W 123°22'5 5.0
2015-Jul-24 01:33N 49°23' W 123°16'1717.5
2015-Jul-24 00:33N 49°15' W 123°41'1111.1
2015-Jul-23 23:31N 49°12' W 123°57'1212.4
2015-Jul-23 22:34N 49°17' W 123°41'1717.0
2015-Jul-23 21:33N 49°23' W 123°16'4 3.9
2015-Jul-23 20:33N 49°20' W 123°21'2019.7
2015-Jul-23 19:33N 49°14' W 123°49'6 5.7
2015-Jul-23 18:33N 49°12' W 123°57'1818.1
2015-Jul-23 17:34N 49°18' W 123°31'1110.7
2015-Jul-23 16:33N 49°23' W 123°16'1313.4
2015-Jul-23 15:33N 49°16' W 123°35'1615.6
2015-Jul-23 14:33N 49°12' W 123°57'0 0.0
2015-Jul-23 13:32N 49°12' W 123°57'0 0.0
2015-Jul-23 12:33N 49°12' W 123°57'0 0.0
2015-Jul-23 11:33N 49°12' W 123°57'0 0.0
2015-Jul-23 10:33N 49°12' W 123°57'0 0.0
2015-Jul-23 09:30N 49°12' W 123°57'0 0.0
2015-Jul-23 03:15N 49°12' W 123°57'0 0.0
2015-Jul-23 02:21N 49°12' W 123°57'0 0.0
2015-Jul-22 23:33N 49°12' W 123°57'1212.4
2015-Jul-22 22:33N 49°17' W 123°40'1716.7
2015-Jul-22 21:33N 49°23' W 123°16'4 4.3
2015-Jul-22 20:33N 49°20' W 123°21'2020.0
2015-Jul-22 19:33N 49°14' W 123°50'5 5.0
2015-Jul-22 18:33N 49°12' W 123°57'0 0.0
2015-Jul-22 17:28N 49°12' W 123°57'0 0.0
2015-Jul-22 15:31N 49°12' W 123°57'0 0.0
2015-Jul-22 13:31N 49°12' W 123°57'0 0.0
2015-Jul-22 12:28N 49°12' W 123°57'0 0.0
2015-Jul-22 11:31N 49°12' W 123°57'0 0.0
2015-Jul-22 10:28N 49°12' W 123°57'0 0.0
2015-Jul-22 09:13N 49°12' W 123°57'0 0.0
2015-Jul-22 08:31N 49°12' W 123°57'0 0.0
2015-Jul-22 07:22N 49°12' W 123°57'0 0.0
2015-Jul-22 06:31N 49°12' W 123°57'0 0.0
2015-Jul-22 02:31N 49°12' W 123°57'  

Dump ship's entire track history